createdAt,value
2023-02-16T00:01:58.865Z,68.97
2023-02-16T00:04:31.223Z,71.22
2023-02-16T00:06:58.626Z,74.95
2023-02-16T00:09:25.854Z,69.28
2023-02-16T00:12:12.374Z,71.82
2023-02-16T00:14:42.798Z,71.55
2023-02-16T00:17:11.561Z,72.40
2023-02-16T00:19:43.022Z,67.43
2023-02-16T00:22:11.431Z,71.45
2023-02-16T00:24:38.796Z,65.68
2023-02-16T00:27:14.101Z,69.30
2023-02-16T00:29:43.158Z,69.32
2023-02-16T00:32:12.971Z,74.22
2023-02-16T00:34:43.794Z,70.05
2023-02-16T00:37:13.555Z,77.32
2023-02-16T00:39:44.218Z,66.13
2023-02-16T00:42:19.176Z,71.40
2023-02-16T00:44:52.711Z,69.15
2023-02-16T00:47:42.601Z,67.70
2023-02-16T00:50:28.434Z,52.77
2023-02-16T00:52:58.451Z,74.85
2023-02-16T00:55:29.331Z,72.50
2023-02-16T01:00:47.662Z,69.70
2023-02-16T01:03:23.407Z,70.00
2023-02-16T01:06:11.206Z,72.35
2023-02-16T01:08:57.169Z,70.20
2023-02-16T01:11:26.755Z,70.30
2023-02-16T01:13:55.475Z,72.28
2023-02-16T01:16:26.478Z,72.15
2023-02-16T01:18:54.342Z,68.18
2023-02-16T01:21:22.056Z,67.20
2023-02-16T01:23:49.391Z,75.00
2023-02-16T01:26:19.628Z,72.55
2023-02-16T01:28:48.201Z,72.93
2023-02-16T01:31:17.993Z,72.25
2023-02-16T01:33:45.595Z,74.32
2023-02-16T01:36:25.017Z,76.72
2023-02-16T01:38:52.609Z,72.80
2023-02-16T01:41:34.768Z,69.22
2023-02-16T01:44:05.636Z,68.60
2023-02-16T01:46:48.917Z,81.68
2023-02-16T01:49:20.185Z,70.45
2023-02-16T01:52:19.445Z,71.50
2023-02-16T01:54:56.378Z,68.75
2023-02-16T01:57:33.333Z,73.22
2023-02-16T02:00:13.839Z,70.82
2023-02-16T02:02:52.746Z,69.22
2023-02-16T02:05:36.475Z,76.70
2023-02-16T02:08:20.607Z,71.00
2023-02-16T02:10:59.536Z,69.35
2023-02-16T02:13:36.000Z,71.93
2023-02-16T02:16:05.446Z,76.80
2023-02-16T02:18:33.606Z,76.22
2023-02-16T02:21:45.723Z,75.63
2023-02-16T02:24:19.322Z,70.68
2023-02-16T02:26:52.493Z,71.55
2023-02-16T02:29:38.433Z,74.45
2023-02-16T02:32:08.759Z,76.25
2023-02-16T02:35:26.675Z,70.30
2023-02-16T02:38:03.139Z,77.25
2023-02-16T02:40:46.980Z,78.28
2023-02-16T02:43:24.628Z,73.32
2023-02-16T02:45:57.264Z,70.20
2023-02-16T02:48:33.642Z,68.85
2023-02-16T02:51:30.548Z,69.95
2023-02-16T02:54:38.731Z,72.60
2023-02-16T02:57:45.195Z,74.03
2023-02-16T03:00:41.774Z,77.63
2023-02-16T03:03:27.828Z,71.20
2023-02-16T03:05:57.384Z,70.93
2023-02-16T03:08:29.194Z,74.88
2023-02-16T03:11:20.591Z,72.93
2023-02-16T03:13:58.349Z,69.05
2023-02-16T03:16:29.925Z,80.45
2023-02-16T03:19:16.968Z,71.13
2023-02-16T03:22:03.357Z,74.05
2023-02-16T03:24:51.193Z,71.93
2023-02-16T03:27:43.662Z,72.95
2023-02-16T03:30:15.409Z,71.90
2023-02-16T03:32:44.702Z,77.32
2023-02-16T03:35:15.223Z,77.38
2023-02-16T03:37:43.871Z,70.95
2023-02-16T03:40:29.653Z,67.85
2023-02-16T03:42:59.591Z,67.05
2023-02-16T03:45:28.200Z,69.40
2023-02-16T03:47:55.914Z,65.32
2023-02-16T03:50:23.204Z,71.32
2023-02-16T03:52:51.060Z,69.32
2023-02-16T03:55:18.724Z,68.95
2023-02-16T03:57:45.979Z,66.25
2023-02-16T04:00:13.640Z,67.20
2023-02-16T04:02:41.081Z,63.22
2023-02-16T04:05:08.394Z,67.40
2023-02-16T04:07:35.670Z,67.60
2023-02-16T04:10:04.475Z,64.20
2023-02-16T04:12:37.426Z,65.57
2023-02-16T04:15:10.914Z,62.03
2023-02-16T04:17:38.248Z,63.53
2023-02-16T04:20:07.548Z,65.03
2023-02-16T04:22:34.869Z,66.97
2023-02-16T04:25:02.229Z,67.60
2023-02-16T04:27:29.528Z,65.22
2023-02-16T04:29:56.902Z,63.22
2023-02-16T04:32:24.243Z,65.03
2023-02-16T04:34:51.684Z,69.35
2023-02-16T04:37:19.280Z,62.85
2023-02-16T04:39:46.896Z,63.58
2023-02-16T04:42:14.204Z,62.70
2023-02-16T04:44:41.637Z,68.35
2023-02-16T04:47:08.900Z,60.65
2023-02-16T04:49:36.246Z,65.75
2023-02-16T04:52:04.193Z,67.47
2023-02-16T04:54:32.886Z,65.07
2023-02-16T04:57:00.903Z,66.15
2023-02-16T04:59:28.186Z,59.85
2023-02-16T05:01:55.599Z,60.53
2023-02-16T05:04:24.528Z,63.67
2023-02-16T05:06:51.842Z,61.42
2023-02-16T05:09:19.158Z,59.28
2023-02-16T05:12:04.900Z,66.93
2023-02-16T05:14:44.887Z,61.22
2023-02-16T05:17:18.297Z,65.93
2023-02-16T05:19:49.024Z,63.75
2023-02-16T05:22:16.949Z,63.83
2023-02-16T05:24:44.649Z,64.28
2023-02-16T05:27:15.268Z,66.80
2023-02-16T05:29:42.703Z,62.85
2023-02-16T05:32:10.062Z,62.25
2023-02-16T05:34:37.416Z,64.53
2023-02-16T05:37:05.063Z,61.00
2023-02-16T05:39:32.635Z,63.30
2023-02-16T05:42:00.615Z,61.47
2023-02-16T05:44:28.060Z,69.45
2023-02-16T05:46:55.342Z,62.53
2023-02-16T05:49:22.677Z,63.97
2023-02-16T05:51:50.093Z,64.38
2023-02-16T05:54:17.628Z,69.65
2023-02-16T05:56:46.327Z,69.97
2023-02-16T05:59:14.550Z,62.58
2023-02-16T06:01:42.182Z,68.45
2023-02-16T06:04:11.226Z,62.63
2023-02-16T06:06:39.180Z,65.53
2023-02-16T06:09:08.337Z,65.30
2023-02-16T06:11:35.948Z,63.97
2023-02-16T06:14:12.344Z,64.38
2023-02-16T06:16:41.657Z,62.45
2023-02-16T06:19:09.611Z,65.15
2023-02-16T06:21:39.026Z,61.53
2023-02-16T06:24:08.407Z,65.78
2023-02-16T06:26:35.911Z,64.03
2023-02-16T06:29:04.219Z,63.72
2023-02-16T06:31:32.165Z,66.38
2023-02-16T06:34:04.050Z,64.30
2023-02-16T06:38:58.762Z,63.75
2023-02-16T06:41:32.334Z,69.38
2023-02-16T06:44:00.904Z,69.20
2023-02-16T06:46:28.708Z,64.78
2023-02-16T06:48:56.153Z,66.85
2023-02-16T06:51:23.746Z,63.65
2023-02-16T06:53:51.063Z,67.43
2023-02-16T06:56:18.421Z,65.70
2023-02-16T06:58:45.664Z,64.30
2023-02-16T07:01:13.027Z,65.25
2023-02-16T07:03:40.417Z,69.82
2023-02-16T07:06:07.935Z,71.55
2023-02-16T07:08:35.927Z,69.07
2023-02-16T07:11:04.355Z,64.88
2023-02-16T07:13:31.802Z,63.85
2023-02-16T07:16:00.938Z,66.22
2023-02-16T07:18:28.237Z,69.95
2023-02-16T07:20:55.512Z,75.22
2023-02-16T07:23:22.923Z,68.80
2023-02-16T07:25:50.457Z,63.72
2023-02-16T07:28:18.213Z,67.43
2023-02-16T07:30:45.499Z,64.32
2023-02-16T07:33:13.227Z,66.25
2023-02-16T07:35:40.661Z,65.80
2023-02-16T07:38:08.175Z,67.63
2023-02-16T07:40:36.540Z,65.80
2023-02-16T07:43:05.333Z,62.63
2023-02-16T07:45:33.954Z,67.00
2023-02-16T07:48:02.282Z,63.95
2023-02-16T07:50:29.582Z,65.70
2023-02-16T07:52:57.009Z,66.10
2023-02-16T07:55:24.324Z,78.88
2023-02-16T07:57:55.390Z,69.35
2023-02-16T08:00:23.101Z,64.63
2023-02-16T08:02:52.363Z,70.68
2023-02-16T08:05:19.723Z,66.25
2023-02-16T08:07:47.946Z,72.38
2023-02-16T08:10:16.080Z,68.60
2023-02-16T08:12:44.170Z,66.15
2023-02-16T08:15:12.148Z,61.20
2023-02-16T08:17:39.576Z,68.32
2023-02-16T08:20:09.089Z,65.47
2023-02-16T08:22:37.072Z,65.50
2023-02-16T08:25:06.994Z,67.07
2023-02-16T08:27:35.799Z,75.82
2023-02-16T08:30:03.678Z,66.65
2023-02-16T08:32:31.219Z,65.68
2023-02-16T08:34:58.537Z,64.28
2023-02-16T08:37:26.037Z,66.40
2023-02-16T08:39:53.883Z,64.72
2023-02-16T08:42:21.333Z,66.80
2023-02-16T08:44:48.680Z,65.60
2023-02-16T08:47:18.444Z,65.03
2023-02-16T08:49:45.853Z,52.72
2023-02-16T08:52:13.904Z,64.57
2023-02-16T08:54:41.382Z,80.03
2023-02-16T08:57:08.926Z,70.25
2023-02-16T08:59:36.183Z,75.93
2023-02-16T09:02:03.876Z,78.95
2023-02-16T09:04:31.266Z,73.82
2023-02-16T09:07:01.660Z,89.28
2023-02-16T09:09:29.092Z,74.72
2023-02-16T09:11:57.762Z,84.43
2023-02-16T09:14:25.129Z,67.78
2023-02-16T09:16:52.944Z,93.75
2023-02-16T09:19:21.344Z,72.95
2023-02-16T09:21:51.002Z,79.97
2023-02-16T09:24:19.213Z,98.35
2023-02-16T09:26:46.675Z,69.40
2023-02-16T09:29:14.362Z,68.57
2023-02-16T09:31:44.306Z,67.32
2023-02-16T09:34:23.461Z,67.93
2023-02-16T09:36:51.063Z,65.07
2023-02-16T09:39:19.197Z,66.88
2023-02-16T09:42:09.928Z,67.80
2023-02-16T09:44:44.593Z,68.53
2023-02-16T09:47:22.131Z,68.75
2023-02-16T09:49:49.970Z,66.45
2023-02-16T09:52:23.434Z,69.28
2023-02-16T09:54:56.012Z,64.03
2023-02-16T09:57:56.888Z,68.85
2023-02-16T10:03:18.335Z,73.20
2023-02-16T10:06:12.583Z,67.07
2023-02-16T10:09:06.236Z,64.60
2023-02-16T10:11:41.886Z,61.67
2023-02-16T10:14:11.977Z,72.85
2023-02-16T10:16:45.966Z,68.35
2023-02-16T10:19:39.900Z,70.85
2023-02-16T10:22:13.082Z,64.85
2023-02-16T10:24:52.133Z,65.00
2023-02-16T10:27:21.949Z,72.43
2023-02-16T10:29:49.563Z,70.83
2023-02-16T10:32:26.979Z,69.20
2023-02-16T10:35:24.496Z,69.50
2023-02-16T10:38:02.849Z,77.18
2023-02-16T10:41:04.071Z,66.82
2023-02-16T10:43:49.159Z,68.15
2023-02-16T10:46:26.628Z,84.80
2023-02-16T10:48:56.168Z,80.95
2023-02-16T10:51:30.386Z,69.93
2023-02-16T10:54:07.106Z,72.10
2023-02-16T10:56:54.257Z,74.60
2023-02-16T10:59:43.327Z,70.78
2023-02-16T11:02:29.042Z,81.80
2023-02-16T11:04:58.240Z,72.75
2023-02-16T11:07:28.360Z,70.70
2023-02-16T11:10:01.465Z,65.72
2023-02-16T11:12:42.106Z,75.38
2023-02-16T11:15:16.688Z,63.58
2023-02-16T11:17:53.133Z,71.35
2023-02-16T11:20:34.186Z,74.60
2023-02-16T11:23:20.288Z,73.22
2023-02-16T11:26:03.703Z,71.07
2023-02-16T11:28:40.928Z,77.03
2023-02-16T11:31:28.406Z,73.43
2023-02-16T11:34:03.296Z,76.97
2023-02-16T11:36:39.436Z,70.20
2023-02-16T11:39:15.146Z,80.28
2023-02-16T11:41:51.035Z,76.35
2023-02-16T11:44:26.182Z,67.30
2023-02-16T11:46:56.665Z,72.47
2023-02-16T11:49:39.647Z,80.03
2023-02-16T11:52:27.364Z,76.68
2023-02-16T11:54:59.116Z,71.30
2023-02-16T11:57:28.665Z,76.38
2023-02-16T11:59:57.110Z,72.88
2023-02-16T12:02:33.555Z,80.70
2023-02-16T12:05:35.699Z,77.18
2023-02-16T12:08:47.990Z,79.38
2023-02-16T12:11:26.329Z,84.00
2023-02-16T12:14:23.923Z,76.75
2023-02-16T12:17:19.403Z,77.88
2023-02-16T12:19:49.776Z,70.88
2023-02-16T12:22:42.854Z,79.75
2023-02-16T12:25:23.714Z,73.43
2023-02-16T12:30:49.921Z,75.80
2023-02-16T12:33:35.808Z,85.68
2023-02-16T12:36:21.811Z,83.22
2023-02-16T12:39:23.277Z,80.13
2023-02-16T12:42:27.962Z,77.15
2023-02-16T12:44:59.580Z,81.70
2023-02-16T12:47:32.847Z,79.50
2023-02-16T12:50:06.640Z,80.28
2023-02-16T12:52:48.591Z,86.10
2023-02-16T12:55:49.135Z,83.20
2023-02-16T12:58:19.818Z,79.93
2023-02-16T13:00:52.281Z,87.32
2023-02-16T13:03:38.746Z,75.28
2023-02-16T13:06:06.682Z,85.15
2023-02-16T13:08:39.336Z,72.35
2023-02-16T13:11:09.767Z,72.32
2023-02-16T13:13:38.387Z,73.43
2023-02-16T13:16:30.490Z,74.15
2023-02-16T13:18:58.673Z,68.00
2023-02-16T13:21:52.043Z,61.28
2023-02-16T13:24:31.466Z,66.45
2023-02-16T13:27:20.296Z,56.00
2023-02-16T13:30:15.928Z,65.85
2023-02-16T13:32:52.276Z,57.65
2023-02-16T13:35:51.833Z,60.30
2023-02-16T13:38:31.263Z,54.88
2023-02-16T13:41:26.380Z,65.72
2023-02-16T13:44:12.008Z,59.85
2023-02-16T13:46:50.220Z,62.53
2023-02-16T13:49:40.713Z,57.35
2023-02-16T13:52:08.894Z,59.90
2023-02-16T13:54:42.468Z,55.65
2023-02-16T13:57:12.818Z,59.20
2023-02-16T13:59:41.015Z,47.35
2023-02-16T14:02:13.168Z,53.45
2023-02-16T14:04:59.305Z,56.67
2023-02-16T14:07:38.550Z,48.80
2023-02-16T14:10:07.091Z,49.03
2023-02-16T14:12:39.208Z,50.78
2023-02-16T14:15:18.648Z,50.15
2023-02-16T14:17:47.241Z,50.80
2023-02-16T14:20:15.801Z,48.58
2023-02-16T14:22:42.996Z,50.00
2023-02-16T14:25:22.627Z,47.13
2023-02-16T14:27:54.410Z,49.63
2023-02-16T14:30:38.975Z,45.70
2023-02-16T14:33:12.412Z,43.65
2023-02-16T14:35:42.794Z,46.15
2023-02-16T14:38:22.611Z,42.17
2023-02-16T14:40:55.795Z,41.55
2023-02-16T14:43:35.849Z,41.05
2023-02-16T14:46:22.335Z,37.92
2023-02-16T14:49:08.613Z,36.22
2023-02-16T14:51:57.823Z,37.75
2023-02-16T14:54:56.559Z,41.47
2023-02-16T14:57:36.484Z,42.88
2023-02-16T15:00:19.570Z,45.77
2023-02-16T15:03:01.944Z,42.05
2023-02-16T15:05:35.720Z,40.97
2023-02-16T15:08:35.143Z,41.72
2023-02-16T15:11:33.836Z,46.55
2023-02-16T15:14:20.758Z,46.40
2023-02-16T15:16:48.829Z,39.55
2023-02-16T15:19:25.708Z,44.72
2023-02-16T15:22:31.833Z,39.40
2023-02-16T15:25:04.896Z,37.33
2023-02-16T15:27:35.077Z,43.78
2023-02-16T15:30:06.922Z,39.28
2023-02-16T15:32:34.321Z,41.78
2023-02-16T15:35:21.771Z,39.75
2023-02-16T15:37:58.710Z,38.72
2023-02-16T15:40:29.982Z,42.15
2023-02-16T15:43:06.730Z,41.00
2023-02-16T15:45:37.843Z,42.97
2023-02-16T15:48:23.795Z,46.38
2023-02-16T15:50:54.304Z,44.38
2023-02-16T15:53:34.915Z,38.78
2023-02-16T15:56:05.960Z,44.05
2023-02-16T15:58:33.891Z,46.85
2023-02-16T16:01:01.345Z,51.05
2023-02-16T16:03:28.718Z,45.72
2023-02-16T16:06:06.400Z,49.17
2023-02-16T16:08:34.536Z,49.22
2023-02-16T16:11:02.103Z,55.35
2023-02-16T16:13:31.692Z,54.28
2023-02-16T16:16:02.625Z,55.20
2023-02-16T16:18:47.796Z,62.17
2023-02-16T16:21:29.825Z,50.30
2023-02-16T16:24:03.612Z,52.45
2023-02-16T16:26:35.427Z,59.08
2023-02-16T16:29:02.986Z,58.85
2023-02-16T16:31:33.421Z,57.47
2023-02-16T16:34:07.414Z,60.78
2023-02-16T16:36:47.608Z,60.97
2023-02-16T16:39:18.138Z,63.10
2023-02-16T16:42:16.056Z,67.75
2023-02-16T16:44:53.918Z,61.25
2023-02-16T16:47:36.141Z,59.95
2023-02-16T16:50:39.771Z,62.20
2023-02-16T16:53:29.237Z,75.20
2023-02-16T16:55:57.504Z,70.88
2023-02-16T16:58:24.828Z,81.05
2023-02-16T17:00:52.055Z,82.60
2023-02-16T17:03:19.520Z,84.30
2023-02-16T17:05:46.788Z,80.35
2023-02-16T17:08:14.014Z,86.68
2023-02-16T17:10:42.173Z,88.88
2023-02-16T17:13:15.525Z,79.57
2023-02-16T17:15:45.472Z,96.03
2023-02-16T17:18:19.420Z,92.38
2023-02-16T17:20:46.875Z,91.18
2023-02-16T17:23:16.385Z,99.85
2023-02-16T17:25:44.124Z,100.72
2023-02-16T17:28:13.496Z,84.07
2023-02-16T17:30:41.809Z,111.68
2023-02-16T17:33:11.661Z,94.47
2023-02-16T17:35:41.776Z,94.63
2023-02-16T17:38:17.497Z,99.78
2023-02-16T17:40:53.988Z,95.28
2023-02-16T17:43:22.970Z,90.68
2023-02-16T17:45:51.785Z,99.40
2023-02-16T17:48:26.504Z,106.25
2023-02-16T17:50:55.309Z,115.32
2023-02-16T17:53:24.584Z,109.57
2023-02-16T17:55:54.304Z,111.72
2023-02-16T17:58:23.014Z,120.03
2023-02-16T18:00:51.000Z,91.40
2023-02-16T18:03:18.939Z,110.72
2023-02-16T18:05:46.663Z,117.30
2023-02-16T18:08:14.221Z,97.53
2023-02-16T18:10:45.154Z,111.05
2023-02-16T18:13:13.422Z,106.78
2023-02-16T18:15:45.360Z,102.35
2023-02-16T18:18:13.686Z,106.82
2023-02-16T18:20:41.695Z,100.13
2023-02-16T18:23:09.334Z,103.93
2023-02-16T18:25:37.123Z,107.22
2023-02-16T18:28:07.126Z,101.15
2023-02-16T18:30:34.860Z,108.18
2023-02-16T18:33:02.204Z,102.30
2023-02-16T18:35:31.831Z,99.70
2023-02-16T18:37:59.655Z,107.97
2023-02-16T18:40:27.151Z,116.68
2023-02-16T18:42:54.878Z,106.85
2023-02-16T18:45:22.880Z,114.95
2023-02-16T18:47:50.550Z,109.80
2023-02-16T18:50:17.978Z,91.97
2023-02-16T18:52:45.304Z,100.90
2023-02-16T18:55:13.361Z,111.85
2023-02-16T18:57:40.858Z,102.55
2023-02-16T19:00:11.525Z,105.13
2023-02-16T19:02:40.907Z,111.32
2023-02-16T19:05:10.255Z,97.20
2023-02-16T19:07:37.690Z,90.93
2023-02-16T19:10:08.378Z,109.75
2023-02-16T19:12:40.604Z,94.97
2023-02-16T19:15:08.864Z,96.35
2023-02-16T19:17:38.549Z,103.47
2023-02-16T19:20:16.800Z,85.38
2023-02-16T19:22:48.593Z,88.80
2023-02-16T19:25:16.255Z,86.78
2023-02-16T19:27:44.598Z,94.32
2023-02-16T19:30:12.880Z,78.50
2023-02-16T19:32:41.385Z,95.20
2023-02-16T19:35:09.915Z,91.15
2023-02-16T19:37:37.788Z,93.65
2023-02-16T19:40:10.489Z,93.97
2023-02-16T19:42:38.732Z,89.28
2023-02-16T19:45:06.890Z,103.35
2023-02-16T19:47:34.920Z,79.25
2023-02-16T19:50:04.861Z,80.55
2023-02-16T19:52:33.579Z,90.88
2023-02-16T19:55:00.877Z,93.68
2023-02-16T19:57:28.744Z,98.40
2023-02-16T19:59:56.131Z,94.35
2023-02-16T20:02:23.464Z,94.85
2023-02-16T20:04:53.536Z,90.15
2023-02-16T20:07:20.934Z,89.72
2023-02-16T20:09:48.359Z,78.43
2023-02-16T20:12:15.792Z,79.15
2023-02-16T20:14:43.615Z,95.35
2023-02-16T20:17:11.041Z,91.45
2023-02-16T20:19:38.313Z,77.28
2023-02-16T20:22:05.606Z,84.72
2023-02-16T20:24:32.965Z,75.68
2023-02-16T20:27:04.294Z,73.80
2023-02-16T20:29:32.114Z,88.53
2023-02-16T20:32:01.780Z,80.32
2023-02-16T20:34:29.134Z,91.25
2023-02-16T20:36:57.212Z,75.95
2023-02-16T20:39:24.879Z,74.28
2023-02-16T20:41:52.170Z,74.85
2023-02-16T20:44:19.801Z,67.38
2023-02-16T20:46:47.234Z,69.93
2023-02-16T20:49:16.513Z,69.43
2023-02-16T20:51:43.951Z,73.20
2023-02-16T20:54:11.774Z,68.40
2023-02-16T20:56:39.201Z,71.90
2023-02-16T20:59:06.612Z,61.05
2023-02-16T21:01:37.278Z,68.82
2023-02-16T21:04:07.164Z,69.80
2023-02-16T21:06:35.598Z,72.55
2023-02-16T21:09:04.871Z,70.60
2023-02-16T21:11:32.544Z,59.17
2023-02-16T21:14:02.439Z,56.55
2023-02-16T21:16:30.630Z,69.18
2023-02-16T21:18:58.051Z,56.95
2023-02-16T21:21:25.689Z,53.97
2023-02-16T21:23:54.455Z,59.58
2023-02-16T21:26:24.171Z,60.67
2023-02-16T21:28:51.688Z,51.25
2023-02-16T21:31:22.486Z,56.55
2023-02-16T21:33:50.992Z,62.97
2023-02-16T21:36:22.560Z,55.47
2023-02-16T21:38:49.941Z,53.78
2023-02-16T21:41:27.983Z,56.15
2023-02-16T21:44:01.584Z,48.20
2023-02-16T21:46:35.642Z,46.58
2023-02-16T21:49:05.880Z,43.08
2023-02-16T21:51:36.692Z,48.80
2023-02-16T21:56:37.105Z,44.92
2023-02-16T21:59:06.834Z,42.67
2023-02-16T22:01:37.708Z,42.38
2023-02-16T22:04:05.816Z,47.60
2023-02-16T22:06:37.500Z,36.15
2023-02-16T22:09:07.675Z,39.35
2023-02-16T22:11:35.391Z,42.80
2023-02-16T22:14:03.293Z,35.55
2023-02-16T22:16:33.827Z,44.88
2023-02-16T22:19:07.083Z,39.47
2023-02-16T22:21:37.959Z,37.58
2023-02-16T22:24:06.711Z,35.92
2023-02-16T22:26:35.705Z,31.77
2023-02-16T22:29:05.515Z,42.30
2023-02-16T22:31:34.159Z,37.27
2023-02-16T22:34:04.195Z,34.25
2023-02-16T22:36:32.488Z,41.55
2023-02-16T22:38:59.759Z,42.45
2023-02-16T22:41:27.279Z,31.27
2023-02-16T22:43:55.658Z,39.58
2023-02-16T22:46:25.459Z,40.25
2023-02-16T22:48:53.429Z,35.80
2023-02-16T22:51:21.946Z,35.28
2023-02-16T22:53:49.225Z,35.08
2023-02-16T22:56:18.627Z,35.50
2023-02-16T22:58:46.633Z,32.95
2023-02-16T23:01:17.612Z,32.30
2023-02-16T23:03:56.777Z,36.67
2023-02-16T23:06:30.349Z,31.55
2023-02-16T23:09:00.754Z,38.05
2023-02-16T23:11:28.840Z,37.30
2023-02-16T23:13:56.560Z,28.40
2023-02-16T23:16:26.947Z,32.15
2023-02-16T23:18:59.344Z,31.85
2023-02-16T23:21:35.878Z,34.05
2023-02-16T23:24:03.492Z,32.10
2023-02-16T23:26:31.228Z,31.88
2023-02-16T23:29:01.750Z,30.90
2023-02-16T23:31:34.966Z,32.60
2023-02-16T23:34:03.384Z,35.95
2023-02-16T23:36:32.811Z,33.15
2023-02-16T23:39:08.977Z,28.20
2023-02-16T23:41:37.251Z,30.25
2023-02-16T23:44:05.417Z,26.20
2023-02-16T23:46:32.961Z,26.33
2023-02-16T23:49:01.397Z,28.10
2023-02-16T23:51:28.830Z,34.63
2023-02-16T23:53:56.396Z,32.47
2023-02-16T23:56:26.728Z,31.45
2023-02-16T23:58:59.032Z,29.63
